createdAt,value
2018-06-15T00:02:18.077Z,9.10
2018-06-15T00:04:46.474Z,9.83
2018-06-15T00:07:21.503Z,10.10
2018-06-15T00:09:49.948Z,9.90
2018-06-15T00:12:18.403Z,10.23
2018-06-15T00:14:47.146Z,9.70
2018-06-15T00:17:15.534Z,10.20
2018-06-15T00:19:43.957Z,9.73
2018-06-15T00:22:12.340Z,9.30
2018-06-15T00:24:40.748Z,10.00
2018-06-15T00:27:09.144Z,9.10
2018-06-15T00:29:37.572Z,11.20
2018-06-15T00:32:06.013Z,10.07
2018-06-15T00:34:34.442Z,10.60
2018-06-15T00:37:02.820Z,10.70
2018-06-15T00:39:31.221Z,9.20
2018-06-15T00:41:59.621Z,9.53
2018-06-15T00:44:28.025Z,9.63
2018-06-15T00:46:56.416Z,9.30
2018-06-15T00:49:24.783Z,9.47
2018-06-15T00:51:53.188Z,9.43
2018-06-15T00:54:21.568Z,9.07
2018-06-15T00:57:01.257Z,8.53
2018-06-15T00:59:29.652Z,8.73
2018-06-15T01:01:58.052Z,8.30
2018-06-15T01:04:26.483Z,8.27
2018-06-15T01:06:54.995Z,7.83
2018-06-15T01:09:23.386Z,7.80
2018-06-15T01:11:51.470Z,8.53
2018-06-15T01:14:19.864Z,8.60
2018-06-15T01:16:48.241Z,8.57
2018-06-15T01:19:16.688Z,8.27
2018-06-15T01:21:45.103Z,8.83
2018-06-15T01:24:13.508Z,7.53
2018-06-15T01:26:41.912Z,7.83
2018-06-15T01:29:10.288Z,8.30
2018-06-15T01:31:38.647Z,10.77
2018-06-15T01:34:07.060Z,9.40
2018-06-15T01:36:35.441Z,10.17
2018-06-15T01:39:05.616Z,9.97
2018-06-15T01:41:34.008Z,11.23
2018-06-15T01:44:02.411Z,10.13
2018-06-15T01:46:30.826Z,11.30
2018-06-15T01:48:59.215Z,11.60
2018-06-15T01:51:27.589Z,11.77
2018-06-15T01:53:55.965Z,11.57
2018-06-15T01:56:24.647Z,12.20
2018-06-15T01:58:53.151Z,11.97
2018-06-15T02:01:21.644Z,11.30
2018-06-15T02:03:50.036Z,11.47
2018-06-15T02:06:18.465Z,11.40
2018-06-15T02:08:46.868Z,10.37
2018-06-15T02:11:15.383Z,11.33
2018-06-15T02:13:43.760Z,12.60
2018-06-15T02:16:12.184Z,11.17
2018-06-15T02:18:40.572Z,12.73
2018-06-15T02:21:09.307Z,12.87
2018-06-15T02:23:37.740Z,11.60
2018-06-15T02:26:06.152Z,11.77
2018-06-15T02:28:34.541Z,11.80
2018-06-15T02:31:02.917Z,13.20
2018-06-15T02:33:31.304Z,12.50
2018-06-15T02:35:59.678Z,12.30
2018-06-15T02:38:28.157Z,11.77
2018-06-15T02:40:56.551Z,12.70
2018-06-15T02:43:25.004Z,11.60
2018-06-15T02:45:53.493Z,12.70
2018-06-15T02:48:21.896Z,11.03
2018-06-15T02:50:50.278Z,11.30
2018-06-15T02:53:18.695Z,13.13
2018-06-15T02:55:47.116Z,12.40
2018-06-15T02:58:15.531Z,14.93
2018-06-15T03:00:43.952Z,11.33
2018-06-15T03:03:12.340Z,12.00
2018-06-15T03:05:40.740Z,11.77
2018-06-15T03:08:09.149Z,11.20
2018-06-15T03:10:37.805Z,12.50
2018-06-15T03:13:06.209Z,11.10
2018-06-15T03:15:34.633Z,11.97
2018-06-15T03:18:03.056Z,13.23
2018-06-15T03:20:32.556Z,12.83
2018-06-15T03:23:00.937Z,12.47
2018-06-15T03:25:29.382Z,13.30
2018-06-15T03:27:57.787Z,14.07
2018-06-15T03:30:26.216Z,14.97
2018-06-15T03:32:54.587Z,12.87
2018-06-15T03:35:23.478Z,12.97
2018-06-15T03:37:51.915Z,14.47
2018-06-15T03:40:20.369Z,12.27
2018-06-15T03:42:48.840Z,12.97
2018-06-15T03:45:17.290Z,11.70
2018-06-15T03:47:45.740Z,14.33
2018-06-15T03:50:14.172Z,14.93
2018-06-15T03:52:42.563Z,14.40
2018-06-15T03:55:10.949Z,12.20
2018-06-15T03:57:39.360Z,13.27
2018-06-15T04:00:07.832Z,12.87
2018-06-15T04:02:36.284Z,13.93
2018-06-15T04:05:04.740Z,13.20
2018-06-15T04:07:33.172Z,14.60
2018-06-15T04:10:01.554Z,12.10
2018-06-15T04:12:29.980Z,12.80
2018-06-15T04:14:58.393Z,12.47
2018-06-15T04:17:26.792Z,11.00
2018-06-15T04:19:55.379Z,12.60
2018-06-15T04:22:23.943Z,12.30
2018-06-15T04:24:52.376Z,12.17
2018-06-15T04:27:20.928Z,13.20
2018-06-15T04:29:49.316Z,11.73
2018-06-15T04:32:17.801Z,13.97
2018-06-15T04:34:46.180Z,13.90
2018-06-15T04:37:14.572Z,14.27
2018-06-15T04:39:43.028Z,14.40
2018-06-15T04:42:11.420Z,13.50
2018-06-15T04:44:39.812Z,11.43
2018-06-15T04:47:08.369Z,12.43
2018-06-15T04:49:37.277Z,12.40
2018-06-15T04:52:05.837Z,12.37
2018-06-15T04:54:34.223Z,13.30
2018-06-15T04:57:02.640Z,12.50
2018-06-15T04:59:31.041Z,10.77
2018-06-15T05:01:59.440Z,12.63
2018-06-15T05:04:27.828Z,11.63
2018-06-15T05:06:56.245Z,11.73
2018-06-15T05:09:24.664Z,10.80
2018-06-15T05:11:53.165Z,10.97
2018-06-15T05:14:21.599Z,13.70
2018-06-15T05:16:50.033Z,11.70
2018-06-15T05:19:18.598Z,18.70
2018-06-15T05:21:47.063Z,12.13
2018-06-15T05:24:15.544Z,10.70
2018-06-15T05:26:43.910Z,11.97
2018-06-15T05:29:12.289Z,11.43
2018-06-15T05:31:40.807Z,12.40
2018-06-15T05:34:09.167Z,13.47
2018-06-15T05:36:37.589Z,12.33
2018-06-15T05:39:08.537Z,12.23
2018-06-15T05:41:37.033Z,11.03
2018-06-15T05:44:05.585Z,12.20
2018-06-15T05:46:34.092Z,10.63
2018-06-15T05:49:02.516Z,11.17
2018-06-15T05:51:30.904Z,10.50
2018-06-15T05:53:59.304Z,10.03
2018-06-15T05:56:27.778Z,9.70
2018-06-15T05:58:56.186Z,19.47
2018-06-15T06:01:24.604Z,10.47
2018-06-15T06:03:53.103Z,10.40
2018-06-15T06:06:22.053Z,10.07
2018-06-15T06:08:50.649Z,9.60
2018-06-15T06:11:19.894Z,10.70
2018-06-15T06:13:48.279Z,10.37
2018-06-15T06:16:16.672Z,10.60
2018-06-15T06:18:45.163Z,10.73
2018-06-15T06:21:13.629Z,14.13
2018-06-15T06:23:42.092Z,12.70
2018-06-15T06:26:10.792Z,10.33
2018-06-15T06:28:39.227Z,11.20
2018-06-15T06:31:07.969Z,11.07
2018-06-15T06:33:36.432Z,10.90
2018-06-15T06:36:04.856Z,10.83
2018-06-15T06:38:33.245Z,11.53
2018-06-15T06:41:01.675Z,12.70
2018-06-15T06:43:30.085Z,12.07
2018-06-15T06:45:58.476Z,13.13
2018-06-15T06:48:26.869Z,12.40
2018-06-15T06:50:55.412Z,13.07
2018-06-15T06:53:23.784Z,12.13
2018-06-15T06:55:52.312Z,12.90
2018-06-15T06:58:21.011Z,14.40
2018-06-15T07:00:49.465Z,13.70
2018-06-15T07:03:17.883Z,13.23
2018-06-15T07:05:46.312Z,12.97
2018-06-15T07:08:14.714Z,13.00
2018-06-15T07:10:43.368Z,11.53
2018-06-15T07:13:11.868Z,11.63
2018-06-15T07:15:40.386Z,11.57
2018-06-15T07:18:08.800Z,10.47
2018-06-15T07:20:37.265Z,11.00
2018-06-15T07:23:05.708Z,9.50
2018-06-15T07:25:34.148Z,10.63
2018-06-15T07:28:02.552Z,9.40
2018-06-15T07:30:30.917Z,9.50
2018-06-15T07:32:59.332Z,9.37
2018-06-15T07:35:27.737Z,10.03
2018-06-15T07:37:56.143Z,9.80
2018-06-15T07:40:24.540Z,9.27
2018-06-15T07:42:52.924Z,11.03
2018-06-15T07:45:21.295Z,9.20
2018-06-15T07:47:49.697Z,10.90
2018-06-15T07:50:18.100Z,9.10
2018-06-15T07:52:46.494Z,10.73
2018-06-15T07:55:14.901Z,9.33
2018-06-15T07:57:43.276Z,8.50
2018-06-15T08:00:11.688Z,8.80
2018-06-15T08:02:40.113Z,8.57
2018-06-15T08:05:08.520Z,9.13
2018-06-15T08:07:36.926Z,7.40
2018-06-15T08:10:05.409Z,8.13
2018-06-15T08:12:33.764Z,6.83
2018-06-15T08:15:02.181Z,7.30
2018-06-15T08:17:30.576Z,7.60
2018-06-15T08:19:58.984Z,8.13
2018-06-15T08:22:27.424Z,8.03
2018-06-15T08:24:55.819Z,8.43
2018-06-15T08:27:25.126Z,9.37
2018-06-15T08:29:53.515Z,8.53
2018-06-15T08:32:21.883Z,7.47
2018-06-15T08:34:50.344Z,8.90
2018-06-15T08:37:18.890Z,8.50
2018-06-15T08:39:47.332Z,8.27
2018-06-15T08:42:15.721Z,7.50
2018-06-15T08:44:44.452Z,8.50
2018-06-15T08:47:12.829Z,8.23
2018-06-15T08:49:41.240Z,8.03
2018-06-15T08:52:09.348Z,8.07
2018-06-15T08:54:37.832Z,9.57
2018-06-15T08:57:06.455Z,9.67
2018-06-15T08:59:34.833Z,9.37
2018-06-15T09:02:03.241Z,8.80
2018-06-15T09:04:31.649Z,7.87
2018-06-15T09:07:00.056Z,8.87
2018-06-15T09:09:28.464Z,8.60
2018-06-15T09:11:56.894Z,7.90
2018-06-15T09:14:25.289Z,8.57
2018-06-15T09:16:53.676Z,8.07
2018-06-15T09:19:22.104Z,8.23
2018-06-15T09:21:50.673Z,8.83
2018-06-15T09:24:19.097Z,8.90
2018-06-15T09:26:47.525Z,9.57
2018-06-15T09:29:15.986Z,9.40
2018-06-15T09:31:44.412Z,9.47
2018-06-15T09:34:12.788Z,9.10
2018-06-15T09:36:41.205Z,7.80
2018-06-15T09:39:11.224Z,8.60
2018-06-15T09:41:40.344Z,7.70
2018-06-15T09:44:08.817Z,6.77
2018-06-15T09:46:37.266Z,7.87
2018-06-15T09:49:05.993Z,7.60
2018-06-15T09:51:34.437Z,6.80
2018-06-15T09:54:02.829Z,7.43
2018-06-15T09:56:31.225Z,7.57
2018-06-15T09:58:59.592Z,7.10
2018-06-15T10:01:28.076Z,6.90
2018-06-15T10:03:56.528Z,6.60
2018-06-15T10:06:24.960Z,7.13
2018-06-15T10:08:53.319Z,6.43
2018-06-15T10:11:21.711Z,5.03
2018-06-15T10:13:50.138Z,5.27
2018-06-15T10:16:18.473Z,5.20
2018-06-15T10:18:46.850Z,5.33
2018-06-15T10:21:15.425Z,5.50
2018-06-15T10:23:43.997Z,5.97
2018-06-15T10:26:12.591Z,5.40
2018-06-15T10:28:40.994Z,6.67
2018-06-15T10:31:09.370Z,6.30
2018-06-15T10:33:37.856Z,6.03
2018-06-15T10:36:06.373Z,5.67
2018-06-15T10:38:34.761Z,6.63
2018-06-15T10:41:03.158Z,7.07
2018-06-15T10:43:31.581Z,5.70
2018-06-15T10:45:59.987Z,6.10
2018-06-15T10:48:28.369Z,5.63
2018-06-15T10:50:56.761Z,5.30
2018-06-15T10:53:25.189Z,5.47
2018-06-15T10:55:53.596Z,5.17
2018-06-15T10:58:22.043Z,5.27
2018-06-15T11:00:50.508Z,5.43
2018-06-15T11:03:18.921Z,5.20
2018-06-15T11:05:47.388Z,4.53
2018-06-15T11:08:15.833Z,3.90
2018-06-15T11:10:44.262Z,3.10
2018-06-15T11:13:13.709Z,3.67
2018-06-15T11:15:42.180Z,3.20
2018-06-15T11:18:10.794Z,3.50
2018-06-15T11:20:39.232Z,3.50
2018-06-15T11:23:07.691Z,3.80
2018-06-15T11:25:36.118Z,3.63
2018-06-15T11:28:04.606Z,3.93
2018-06-15T11:30:33.004Z,3.70
2018-06-15T11:33:01.396Z,3.60
2018-06-15T11:35:29.844Z,3.93
2018-06-15T11:37:58.332Z,3.93
2018-06-15T11:40:26.711Z,4.17
2018-06-15T11:42:55.104Z,4.13
2018-06-15T11:45:23.474Z,4.13
2018-06-15T11:47:51.880Z,3.57
2018-06-15T11:50:20.339Z,3.60
2018-06-15T11:52:48.780Z,3.60
2018-06-15T11:55:17.521Z,3.73
2018-06-15T11:57:45.968Z,3.50
2018-06-15T12:00:14.497Z,3.43
2018-06-15T12:02:42.925Z,3.70
2018-06-15T12:05:11.409Z,3.70
2018-06-15T12:07:39.814Z,3.90
2018-06-15T12:10:08.231Z,4.07
2018-06-15T12:12:36.677Z,3.97
2018-06-15T12:15:05.329Z,3.97
2018-06-15T12:17:33.780Z,4.60
2018-06-15T12:20:02.227Z,4.13
2018-06-15T12:22:30.621Z,3.70
2018-06-15T12:24:59.030Z,3.67
2018-06-15T12:27:27.405Z,3.53
2018-06-15T12:29:55.828Z,4.10
2018-06-15T12:32:24.245Z,4.60
2018-06-15T12:34:52.644Z,4.00
2018-06-15T12:37:21.051Z,4.07
2018-06-15T12:39:49.928Z,4.20
2018-06-15T12:42:18.045Z,4.20
2018-06-15T12:44:46.513Z,4.07
2018-06-15T12:47:14.907Z,3.90
2018-06-15T12:49:43.307Z,3.72
2018-06-15T12:52:11.700Z,3.90
2018-06-15T12:54:40.080Z,3.60
2018-06-15T12:57:08.552Z,3.47
2018-06-15T12:59:36.942Z,3.80
2018-06-15T13:02:05.511Z,4.97
2018-06-15T13:04:33.905Z,3.87
2018-06-15T13:07:02.346Z,3.77
2018-06-15T13:09:30.805Z,3.53
2018-06-15T13:11:59.331Z,3.27
2018-06-15T13:14:27.760Z,3.20
2018-06-15T13:16:56.217Z,3.30
2018-06-15T13:19:24.775Z,2.90
2018-06-15T13:21:53.277Z,2.63
2018-06-15T13:24:21.754Z,2.67
2018-06-15T13:26:50.241Z,2.60
2018-06-15T13:29:18.643Z,2.87
2018-06-15T13:31:47.144Z,2.80
2018-06-15T13:34:15.541Z,2.80
2018-06-15T13:36:43.961Z,2.90
2018-06-15T13:39:13.622Z,2.60
2018-06-15T13:41:42.098Z,2.95
2018-06-15T13:44:10.608Z,2.70
2018-06-15T13:46:39.175Z,2.60
2018-06-15T13:49:07.592Z,2.60
2018-06-15T13:51:36.436Z,2.30
2018-06-15T13:54:05.745Z,2.73
2018-06-15T13:56:34.342Z,2.53
2018-06-15T13:59:02.789Z,2.60
2018-06-15T14:01:31.182Z,2.47
2018-06-15T14:03:59.628Z,2.13
2018-06-15T14:06:28.042Z,2.20
2018-06-15T14:08:56.876Z,2.70
2018-06-15T14:11:25.325Z,2.30
2018-06-15T14:13:53.793Z,3.00
2018-06-15T14:16:22.187Z,2.65
2018-06-15T14:18:50.661Z,4.45
2018-06-15T14:21:19.061Z,2.10
2018-06-15T14:23:47.480Z,2.23
2018-06-15T14:26:15.973Z,2.08
2018-06-15T14:28:44.367Z,2.47
2018-06-15T14:31:12.784Z,2.47
2018-06-15T14:33:41.172Z,2.27
2018-06-15T14:36:09.587Z,2.10
2018-06-15T14:38:37.976Z,1.90
2018-06-15T14:41:06.408Z,2.10
2018-06-15T14:43:34.800Z,2.00
2018-06-15T14:46:03.308Z,2.40
2018-06-15T14:48:31.753Z,2.20
2018-06-15T14:51:00.188Z,2.10
2018-06-15T14:53:28.589Z,2.50
2018-06-15T14:55:56.969Z,2.27
2018-06-15T14:58:25.420Z,2.40
2018-06-15T15:00:55.182Z,2.60
2018-06-15T15:03:24.270Z,2.30
2018-06-15T15:05:52.764Z,2.02
2018-06-15T15:08:21.167Z,4.60
2018-06-15T15:10:49.552Z,2.40
2018-06-15T15:13:17.992Z,2.53
2018-06-15T15:15:46.432Z,3.47
2018-06-15T15:18:14.926Z,2.90
2018-06-15T15:20:43.320Z,2.17
2018-06-15T15:23:12.021Z,2.00
2018-06-15T15:25:40.418Z,3.72
2018-06-15T15:28:09.149Z,3.40
2018-06-15T15:30:37.754Z,2.50
2018-06-15T15:33:06.172Z,6.43
2018-06-15T15:35:34.702Z,4.83
2018-06-15T15:38:03.195Z,3.33
2018-06-15T15:40:31.612Z,2.17
2018-06-15T15:43:00.160Z,2.20
2018-06-15T15:45:28.559Z,2.03
2018-06-15T15:47:57.061Z,2.37
2018-06-15T15:50:25.866Z,2.37
2018-06-15T15:52:54.296Z,2.30
2018-06-15T15:55:22.729Z,2.40
2018-06-15T15:57:51.213Z,2.70
2018-06-15T16:00:19.636Z,2.43
2018-06-15T16:02:48.068Z,2.40
2018-06-15T16:05:16.531Z,2.50
2018-06-15T16:07:45.700Z,2.60
2018-06-15T16:10:14.957Z,2.47
2018-06-15T16:12:43.108Z,2.43
2018-06-15T16:15:11.760Z,5.50
2018-06-15T16:17:40.190Z,3.50
2018-06-15T16:20:08.667Z,2.50
2018-06-15T16:22:37.179Z,2.47
2018-06-15T16:25:05.606Z,2.53
2018-06-15T16:27:34.133Z,2.37
2018-06-15T16:30:02.720Z,2.50
2018-06-15T16:32:31.135Z,2.30
2018-06-15T16:34:59.557Z,2.83
2018-06-15T16:37:27.945Z,2.67
2018-06-15T16:39:56.364Z,2.70
2018-06-15T16:42:24.839Z,2.70
2018-06-15T16:44:53.305Z,2.87
2018-06-15T16:47:21.873Z,2.37
2018-06-15T16:49:50.336Z,2.43
2018-06-15T16:52:18.829Z,2.97
2018-06-15T16:54:47.336Z,2.37
2018-06-15T16:57:15.716Z,2.37
2018-06-15T16:59:44.140Z,2.40
2018-06-15T17:02:12.581Z,2.73
2018-06-15T17:04:40.992Z,3.00
2018-06-15T17:07:09.459Z,2.80
2018-06-15T17:09:37.945Z,2.70
2018-06-15T17:12:06.367Z,2.40
2018-06-15T17:14:34.833Z,8.93
2018-06-15T17:17:03.301Z,4.27
2018-06-15T17:19:31.845Z,2.77
2018-06-15T17:22:00.265Z,2.90
2018-06-15T17:24:29.184Z,2.20
2018-06-15T17:27:00.472Z,2.63
2018-06-15T17:29:29.309Z,2.90
2018-06-15T17:31:58.508Z,2.87
2018-06-15T17:34:26.961Z,3.20
2018-06-15T17:36:55.372Z,3.10
2018-06-15T17:39:23.771Z,3.73
2018-06-15T17:41:52.003Z,2.70
2018-06-15T17:44:20.460Z,2.53
2018-06-15T17:46:48.867Z,3.53
2018-06-15T17:49:17.433Z,2.50
2018-06-15T17:51:45.844Z,2.87
2018-06-15T17:54:14.281Z,4.17
2018-06-15T17:56:42.800Z,2.60
2018-06-15T17:59:11.220Z,2.53
2018-06-15T18:01:39.305Z,2.57
2018-06-15T18:04:07.715Z,2.53
2018-06-15T18:06:36.200Z,2.90
2018-06-15T18:09:07.373Z,2.40
2018-06-15T18:11:35.929Z,2.80
2018-06-15T18:14:04.646Z,3.37
2018-06-15T18:16:33.220Z,4.17
2018-06-15T18:19:01.737Z,3.37
2018-06-15T18:21:30.161Z,4.37
2018-06-15T18:23:58.844Z,3.93
2018-06-15T18:26:27.402Z,2.90
2018-06-15T18:28:55.940Z,2.30
2018-06-15T18:31:24.392Z,3.20
2018-06-15T18:33:52.981Z,4.33
2018-06-15T18:36:21.376Z,5.00
2018-06-15T18:38:49.788Z,4.30
2018-06-15T18:41:18.431Z,3.30
2018-06-15T18:43:49.059Z,3.03
2018-06-15T18:49:13.304Z,3.13
2018-06-15T18:51:41.785Z,3.60
2018-06-15T18:54:10.352Z,3.27
2018-06-15T18:56:38.785Z,3.00
2018-06-15T18:59:07.379Z,2.80
2018-06-15T19:01:35.808Z,3.33
2018-06-15T19:04:04.309Z,2.97
2018-06-15T19:06:32.816Z,2.70
2018-06-15T19:09:01.255Z,2.90
2018-06-15T19:12:00.249Z,3.20
2018-06-15T19:14:28.412Z,4.17
2018-06-15T19:16:56.916Z,5.43
2018-06-15T19:19:25.355Z,6.23
2018-06-15T19:21:53.753Z,4.10
2018-06-15T19:24:22.209Z,4.07
2018-06-15T19:26:50.724Z,7.80
2018-06-15T19:29:19.362Z,6.80
2018-06-15T19:31:48.202Z,6.10
2018-06-15T19:34:16.782Z,4.47
2018-06-15T19:36:45.307Z,3.50
2018-06-15T19:39:13.732Z,3.53
2018-06-15T19:41:42.185Z,4.10
2018-06-15T19:44:10.605Z,5.67
2018-06-15T19:46:39.057Z,4.60
2018-06-15T19:49:07.762Z,3.67
2018-06-15T19:51:36.599Z,3.53
2018-06-15T19:54:05.056Z,4.13
2018-06-15T19:56:33.601Z,3.57
2018-06-15T19:59:02.092Z,3.50
2018-06-15T20:01:30.471Z,2.93
2018-06-15T20:03:58.898Z,3.20
2018-06-15T20:06:27.296Z,3.43
2018-06-15T20:08:55.749Z,3.67
2018-06-15T20:11:23.873Z,3.80
2018-06-15T20:13:52.423Z,3.20
2018-06-15T20:16:20.892Z,3.30
2018-06-15T20:18:49.339Z,3.50
2018-06-15T20:21:17.750Z,3.40
2018-06-15T20:23:46.169Z,3.17
2018-06-15T20:26:14.604Z,3.67
2018-06-15T20:28:43.080Z,3.63
2018-06-15T20:31:11.530Z,3.37
2018-06-15T20:33:40.017Z,3.60
2018-06-15T20:36:08.657Z,3.77
2018-06-15T20:38:36.999Z,3.60
2018-06-15T20:41:05.410Z,3.63
2018-06-15T20:43:33.821Z,4.10
2018-06-15T20:46:02.248Z,3.67
2018-06-15T20:48:31.041Z,4.07
2018-06-15T20:50:59.483Z,3.60
2018-06-15T20:53:28.166Z,3.87
2018-06-15T20:55:56.614Z,3.97
2018-06-15T20:58:25.076Z,4.20
2018-06-15T21:00:53.654Z,4.40
2018-06-15T21:03:22.053Z,4.17
2018-06-15T21:05:50.723Z,4.23
2018-06-15T21:08:19.161Z,4.40
2018-06-15T21:10:47.617Z,4.57
2018-06-15T21:13:16.015Z,4.33
2018-06-15T21:15:44.417Z,3.87
2018-06-15T21:18:12.869Z,7.20
2018-06-15T21:20:41.256Z,8.90
2018-06-15T21:23:09.802Z,5.47
2018-06-15T21:25:38.262Z,5.47
2018-06-15T21:28:06.719Z,7.47
2018-06-15T21:30:35.132Z,5.90
2018-06-15T21:33:03.593Z,5.80
2018-06-15T21:35:31.693Z,6.43
2018-06-15T21:38:00.178Z,5.90
2018-06-15T21:40:28.567Z,5.80
2018-06-15T21:42:57.024Z,5.43
2018-06-15T21:45:25.457Z,5.10
2018-06-15T21:47:53.956Z,5.90
2018-06-15T21:50:22.379Z,5.20
2018-06-15T21:52:50.703Z,5.43
2018-06-15T21:55:19.125Z,5.60
2018-06-15T21:57:47.513Z,5.50
2018-06-15T22:00:15.945Z,5.23
2018-06-15T22:02:44.329Z,5.43
2018-06-15T22:05:13.057Z,5.47
2018-06-15T22:07:42.619Z,5.33
2018-06-15T22:10:11.068Z,5.57
2018-06-15T22:12:39.489Z,5.23
2018-06-15T22:15:08.012Z,5.70
2018-06-15T22:17:36.466Z,5.73
2018-06-15T22:20:04.939Z,5.73
2018-06-15T22:22:33.341Z,5.80
2018-06-15T22:25:01.499Z,5.50
2018-06-15T22:27:30.014Z,5.37
2018-06-15T22:29:58.392Z,5.73
2018-06-15T22:32:26.843Z,5.27
2018-06-15T22:34:55.265Z,5.53
2018-06-15T22:37:23.708Z,5.07
2018-06-15T22:39:51.843Z,5.27
2018-06-15T22:42:20.429Z,5.20
2018-06-15T22:44:48.871Z,5.00
2018-06-15T22:47:17.285Z,5.13
2018-06-15T22:49:46.137Z,5.27
2018-06-15T22:52:14.540Z,5.53
2018-06-15T22:54:42.955Z,4.67
2018-06-15T22:57:11.360Z,5.07
2018-06-15T22:59:39.756Z,4.50
2018-06-15T23:02:08.180Z,5.10
2018-06-15T23:04:36.559Z,5.07
2018-06-15T23:07:05.136Z,4.83
2018-06-15T23:09:33.548Z,4.80
2018-06-15T23:12:01.955Z,4.63
2018-06-15T23:14:30.367Z,5.00
2018-06-15T23:16:58.768Z,5.03
2018-06-15T23:19:27.188Z,4.53
2018-06-15T23:21:55.684Z,4.80
2018-06-15T23:24:24.155Z,4.80
2018-06-15T23:26:52.565Z,5.00
2018-06-15T23:29:20.964Z,5.47
2018-06-15T23:31:49.356Z,5.27
2018-06-15T23:34:17.756Z,5.40
2018-06-15T23:36:46.145Z,5.10
2018-06-15T23:39:14.513Z,5.30
2018-06-15T23:41:42.996Z,4.63
2018-06-15T23:44:11.371Z,5.17
2018-06-15T23:46:39.781Z,5.63
2018-06-15T23:49:08.155Z,5.70
2018-06-15T23:51:36.563Z,5.30
2018-06-15T23:54:04.940Z,5.43
2018-06-15T23:56:33.333Z,5.63
2018-06-15T23:59:01.733Z,5.27
